Nearby METAR Reports

Aktualna pogoda na lotniskach (dane METAR)

 

EPGD - Gdansk/Rebiechow, Poland
Distance from station: ENE 27mi, 44km
Updated: Sun, 21-Jul-2024 2:30pm PDT
Clear
Clear
 Wind from ENE
Wind: ENE 6 mph , 9 km/h
Temperature: 66°F , 19°C
Dew Point: 63°F , 17°C
Humidity: 88%
Barometer: 29.85 inHg , 1011 hPa
Summary: Clear
Visibility: greater than 7 miles , 10 km
2024/07/21 21:30 EPGD 212130Z 06005KT CAVOK 19/17 Q1011
EPSC - Szczecin/Golenio, Poland
Distance from station: WSW 128mi, 205km
Updated: Sun, 21-Jul-2024 2:30pm PDT
Clear
Clear
 Wind from ENE
Wind: ENE 9 mph , 15 km/h
Temperature: 73°F , 23°C
Dew Point: 59°F , 15°C
Humidity: 61%
Barometer: 29.77 inHg , 1008 hPa
Summary: Clear
Visibility: greater than 7 miles , 10 km
2024/07/21 21:30 EPSC 212130Z 07008KT CAVOK 23/15 Q1008
 
EPPO - Poznan/Lawica, Poland
Distance from station: SSW 131mi, 210km
Updated: Sun, 21-Jul-2024 2:30pm PDT
Clear
Clear
 Wind from E
Wind: E 1 mph , 2 km/h
Temperature: 66°F , 19°C
Dew Point: 61°F , 16°C
Humidity: 83%
Barometer: 29.8 inHg , 1009 hPa
Summary: Clear
Visibility: greater than 7 miles , 10 km
2024/07/21 21:30 EPPO 212130Z 09001KT CAVOK 19/16 Q1009
EPLL - Lodz/Lublinek, Poland
Distance from station: SSE 184mi, 296km
Updated: Sun, 21-Jul-2024 2:30pm PDT
Clear
Clear
 Wind from WNW
Wind: WNW 1 mph , 2 km/h
Temperature: 66°F , 19°C
Dew Point: 59°F , 15°C
Humidity: 78%
Barometer: 29.83 inHg , 1010 hPa
Summary: Clear
Visibility: greater than 7 miles , 10 km
2024/07/21 21:30 EPLL 212130Z 29001KT CAVOK 19/15 Q1010
 
EPWA - Warsaw/Okecie, Poland
Distance from station: SE 191mi, 307km
Updated: Sun, 21-Jul-2024 2:30pm PDT
Clear
Clear
 Wind from SSE
Wind: SSE 3 mph , 6 km/h
Temperature: 68°F , 20°C
Dew Point: 57°F , 14°C
Humidity: 69%
Barometer: 29.83 inHg , 1010 hPa
Summary: Clear
Visibility: greater than 7 miles , 10 km
2024/07/21 21:30 EPWA 212130Z 16003KT CAVOK 20/14 Q1010 NOSIG
EPWR - Wroclaw/Strachow, Poland
Distance from station: S 219mi, 352km
Updated: Sun, 21-Jul-2024 2:30pm PDT
Clear
Clear
 Wind from ESE
Wind: ESE 2 mph , 4 km/h
Temperature: 70°F , 21°C
Dew Point: 57°F , 14°C
Humidity: 64%
Barometer: 29.83 inHg , 1010 hPa
Summary: Clear
Visibility: greater than 7 miles , 10 km
2024/07/21 21:30 EPWR 212130Z 12002KT CAVOK 21/14 Q1010

Metar display script from Saratoga-Weather.org